EGPK/PIK METAR and TAF weather

Enter ICAO airport designator
Station Type Date Time Source
EGPK METAR 2021/04/18 03:20 UTC NOAA

EGPK 180320Z 14008KT CAVOK 07/01 Q1024


Station Type Date Time Source
EGPK Decoded METAR 2021/04/18 03:20 UTC NOAA

Prestwick Airport, United Kingdom (EGPK) 55-30N 004-35W 0M
Apr 17, 2021 - 11:20 PM EDT / 2021.04.18 0320 UTC
Wind: from the SE (140 degrees) at 9 MPH (8 KT):0
Visibility: greater than 7 mile(s):0
Temperature: 44 F (7 C)
Dew Point: 33 F (1 C)
Relative Humidity: 65%
Pressure (altimeter): 30.24 in. Hg (1024 hPa)
ob: EGPK 180320Z 14008KT CAVOK 07/01 Q1024
cycle: 3

Station Type Date Time Source
EGPK TAF 2021/04/17 18:09 UTC NOAA

TAF EGPK 171655Z 1718/1818 18010KT 9999 FEW040
BECMG 1718/1721 12005KT
TEMPO 1803/1818 7000 -RA PROB40
TEMPO 1803/1818 4000 RA RADZ BKN013
BECMG 1809/1812 19010KT

Example: see airport list